Time;durP1;ratioP1;P1;durP2;ratioP2;P2;SDS_P1;SDS_P2;PMS_P1;PMS_P2;Temp;Humidity;BMP_temperature;BMP_pressure;BME280_temperature;BME280_humidity;BME280_pressure;Samples;Min_cycle;Max_cycle;Signal;HPM_P1;HPM_P2
2022/05/11 00:00:24;;;;;;;1.15;0.40;;;;;;;21.15;37.84;101290.47;16135641;19;131325;-45
2022/05/11 00:05:47;;;;;;;1.02;0.40;;;;;;;21.15;37.84;101279.31;16142771;19;129962;-47
2022/05/11 00:11:09;;;;;;;1.10;0.47;;;;;;;21.14;38.15;101272.06;16140684;19;131035;-49
2022/05/11 00:16:33;;;;;;;0.20;0.20;;;;;;;21.14;38.21;101268.44;16135716;19;129699;-51
2022/05/11 00:21:55;;;;;;;0.77;0.28;;;;;;;21.12;37.94;101271.47;16138029;19;130320;-45
2022/05/11 00:27:16;;;;;;;1.65;0.57;;;;;;;21.12;38.03;101248.38;16140303;19;129743;-48
2022/05/11 00:32:38;;;;;;;0.65;0.50;;;;;;;21.11;37.88;101249.50;16141525;19;129634;-50
2022/05/11 00:38:01;;;;;;;0.52;0.40;;;;;;;21.11;38.06;101246.72;16141540;19;130001;-48
2022/05/11 00:43:34;;;;;;;1.13;0.40;;;;;;;21.11;37.83;101241.16;16141500;19;130834;-46
2022/05/11 00:54:47;;;;;;;3.78;0.50;;;;;;;21.09;37.79;101224.69;16138063;19;130261;-48
2022/05/11 01:00:13;;;;;;;1.00;0.40;;;;;;;21.08;38.01;101225.78;16140675;19;129828;-50
2022/05/11 01:05:35;;;;;;;0.30;0.30;;;;;;;21.09;38.04;101229.44;16140015;19;129762;-45
2022/05/11 01:11:01;;;;;;;0.63;0.30;;;;;;;21.08;38.46;101216.63;16138223;19;131414;-42
2022/05/11 01:16:23;;;;;;;3.53;0.60;;;;;;;21.06;38.00;101212.16;16131654;19;130748;-44
2022/05/11 01:21:52;;;;;;;1.27;0.25;;;;;;;21.08;37.88;101224.97;16136788;19;130387;-44
2022/05/11 01:27:31;;;;;;;1.83;0.40;;;;;;;21.06;38.05;101201.03;16136325;19;130362;-44
2022/05/11 01:32:55;;;;;;;0.50;0.30;;;;;;;21.04;38.25;101205.16;16137759;19;129907;-42
2022/05/11 01:38:26;;;;;;;2.38;0.63;;;;;;;21.05;37.85;101198.47;16134516;19;129801;-41
2022/05/11 01:43:50;;;;;;;3.65;0.40;;;;;;;21.04;37.99;101199.59;16135932;19;130540;-46
2022/05/11 01:49:12;;;;;;;1.00;0.30;;;;;;;21.03;37.94;101190.41;16134107;19;132001;-41
2022/05/11 01:54:34;;;;;;;0.70;0.30;;;;;;;21.03;38.21;101181.22;16131937;19;131807;-45
2022/05/11 01:59:56;;;;;;;0.98;0.40;;;;;;;21.02;38.06;101188.72;16136504;19;129089;-42
2022/05/11 02:10:58;;;;;;;0.93;0.32;;;;;;;21.01;38.26;101188.97;16133393;19;131157;-42
2022/05/11 02:16:20;;;;;;;1.20;0.38;;;;;;;21.00;37.75;101185.34;16127850;19;128940;-45
2022/05/11 02:21:42;;;;;;;1.40;0.40;;;;;;;20.99;38.02;101180.03;16132291;19;130021;-44
2022/05/11 02:27:04;;;;;;;4.07;0.60;;;;;;;20.99;38.05;101171.69;16131683;19;129289;-45
2022/05/11 02:32:29;;;;;;;1.40;0.28;;;;;;;20.98;37.88;101172.78;16130710;19;129844;-43
2022/05/11 02:37:56;;;;;;;0.30;0.30;;;;;;;20.99;38.02;101168.91;16133088;19;128979;-41
2022/05/11 02:43:18;;;;;;;0.77;0.25;;;;;;;20.98;37.91;101167.22;16134129;19;129820;-43
2022/05/11 02:48:41;;;;;;;1.33;0.40;;;;;;;20.97;38.21;101168.34;16136499;19;129829;-43
2022/05/11 02:54:03;;;;;;;0.90;0.35;;;;;;;20.97;37.90;101165.53;16129449;19;130220;-42
2022/05/11 02:59:25;;;;;;;0.77;0.38;;;;;;;20.97;38.23;101157.22;16133022;19;130448;-41
2022/05/11 03:04:48;;;;;;;1.00;0.30;;;;;;;20.95;37.76;101162.19;16133983;19;129604;-41
2022/05/11 03:10:10;;;;;;;1.45;0.45;;;;;;;20.95;38.27;101149.13;16132120;19;130192;-42
2022/05/11 03:15:32;;;;;;;0.47;0.20;;;;;;;20.94;37.67;101144.66;16127815;19;131854;-47
2022/05/11 03:20:56;;;;;;;0.70;0.35;;;;;;;20.94;37.85;101135.47;16132253;19;130486;-44
2022/05/11 03:26:18;;;;;;;0.68;0.30;;;;;;;20.94;38.00;101135.47;16126926;19;131022;-44
2022/05/11 03:31:40;;;;;;;1.40;0.30;;;;;;;20.93;38.11;101128.22;16130085;19;129635;-43
2022/05/11 03:37:07;;;;;;;1.75;0.30;;;;;;;20.93;38.27;101129.06;16138733;19;130296;-45
2022/05/11 03:42:31;;;;;;;0.98;0.25;;;;;;;20.92;38.07;101121.81;16146275;19;130392;-47
2022/05/11 03:47:53;;;;;;;0.50;0.20;;;;;;;20.90;37.76;101118.47;16144745;19;131092;-44
2022/05/11 03:53:15;;;;;;;0.32;0.20;;;;;;;20.90;38.29;101124.00;16143291;19;129526;-43
2022/05/11 03:58:37;;;;;;;0.30;0.30;;;;;;;20.89;38.25;101125.97;16143737;19;130081;-46
2022/05/11 04:03:58;;;;;;;0.55;0.30;;;;;;;20.89;37.94;101123.19;16142129;19;129457;-45
2022/05/11 04:09:20;;;;;;;1.75;0.20;;;;;;;20.90;38.28;101119.31;16145863;19;130049;-47
2022/05/11 04:14:42;;;;;;;0.10;0.10;;;;;;;20.89;38.08;101120.41;16140041;19;129778;-44
2022/05/11 04:20:05;;;;;;;1.17;0.40;;;;;;;20.88;37.87;101127.06;16142670;19;130636;-42
2022/05/11 04:25:27;;;;;;;0.40;0.30;;;;;;;20.88;37.89;101123.44;16142440;19;130552;-42
2022/05/11 04:30:49;;;;;;;0.30;0.20;;;;;;;20.86;38.07;101123.69;16142720;19;129774;-42
2022/05/11 04:36:11;;;;;;;0.32;0.25;;;;;;;20.86;38.02;101125.66;16137644;19;129506;-43
2022/05/11 04:41:33;;;;;;;0.40;0.10;;;;;;;20.85;37.95;101126.75;16139847;19;130533;-44
2022/05/11 04:46:55;;;;;;;0.35;0.30;;;;;;;20.85;37.88;101126.75;16139801;19;130496;-44
2022/05/11 04:52:17;;;;;;;0.40;0.20;;;;;;;20.84;38.34;101125.88;16138925;19;129898;-45
2022/05/11 04:57:39;;;;;;;0.25;0.20;;;;;;;20.84;37.89;101128.66;16132997;19;129732;-42
2022/05/11 05:03:02;;;;;;;0.43;0.20;;;;;;;20.83;38.25;101134.50;16138291;19;130414;-44
2022/05/11 05:08:27;;;;;;;0.30;0.13;;;;;;;20.83;37.78;101135.31;16139963;19;130233;-47
2022/05/11 05:13:50;;;;;;;0.22;0.20;;;;;;;20.83;38.10;101135.31;16135183;19;130038;-47
2022/05/11 05:19:12;;;;;;;9.88;0.50;;;;;;;20.84;38.38;101141.75;16134880;19;129943;-45
2022/05/11 05:24:34;;;;;;;1.58;0.50;;;;;;;20.89;38.18;101148.22;16139707;19;130217;-46
2022/05/11 05:35:36;;;;;;;1.20;0.60;;;;;;;21.10;38.09;101162.41;16140147;19;129195;-42
2022/05/11 05:40:58;;;;;;;1.85;0.57;;;;;;;21.19;38.47;101162.78;16136545;19;129752;-43
2022/05/11 05:46:20;;;;;;;1.10;0.35;;;;;;;21.27;38.13;101161.50;16139086;19;129011;-42
2022/05/11 05:51:42;;;;;;;1.85;0.60;;;;;;;21.34;38.02;101159.34;16141440;19;129900;-45
2022/05/11 05:57:04;;;;;;;2.55;0.50;;;;;;;21.39;37.69;101153.88;16127435;19;130072;-44
2022/05/11 06:02:26;;;;;;;3.17;0.50;;;;;;;21.45;38.00;101152.81;16131635;19;129986;-44
2022/05/11 06:07:48;;;;;;;2.08;0.35;;;;;;;21.52;37.86;101149.88;16139356;19;129426;-42
2022/05/11 06:13:12;;;;;;;4.68;0.40;;;;;;;21.57;37.83;101154.66;16142115;19;129805;-47
2022/05/11 06:18:36;;;;;;;5.30;0.60;;;;;;;21.62;37.61;101155.53;16137925;19;129660;-43
2022/05/11 06:23:58;;;;;;;3.70;0.60;;;;;;;21.67;37.67;101149.19;16140983;19;129405;-46
2022/05/11 06:29:19;;;;;;;3.22;0.50;;;;;;;21.72;37.35;101151.22;16140196;19;129530;-45
2022/05/11 06:34:41;;;;;;;1.48;0.50;;;;;;;21.75;37.17;101145.94;16136210;19;129785;-44
2022/05/11 06:40:03;;;;;;;1.38;0.47;;;;;;;21.80;36.86;101146.00;16134241;19;129966;-44
2022/05/11 06:45:26;;;;;;;1.13;0.50;;;;;;;21.83;37.14;101148.25;16138531;19;129213;-46
2022/05/11 06:50:47;;;;;;;1.08;0.50;;;;;;;21.86;36.76;101146.88;16141373;19;131090;-46
2022/05/11 07:02:03;;;;;;;1.90;0.50;;;;;;;21.93;36.74;101147.53;16138063;19;130871;-45
2022/05/11 07:07:25;;;;;;;2.83;0.65;;;;;;;21.96;37.14;101141.44;16136680;19;128959;-44
2022/05/11 07:12:47;;;;;;;3.00;0.70;;;;;;;22.02;37.12;101145.09;16137139;19;128939;-45
2022/05/11 07:18:09;;;;;;;6.40;0.60;;;;;;;22.06;36.56;101140.66;16130017;19;129611;-44
2022/05/11 07:23:31;;;;;;;1.20;0.52;;;;;;;22.07;36.83;101133.16;16137656;19;130067;-44
2022/05/11 07:28:54;;;;;;;9.95;0.73;;;;;;;22.08;36.49;101134.84;16134974;19;129414;-47
2022/05/11 07:34:17;;;;;;;3.42;0.52;;;;;;;22.10;36.50;101147.41;16132829;19;129256;-47
2022/05/11 07:39:39;;;;;;;6.45;0.75;;;;;;;22.12;36.47;101144.34;16135446;19;129185;-45
2022/05/11 07:45:01;;;;;;;4.32;0.80;;;;;;;22.13;36.50;101140.44;16133667;19;130121;-43
2022/05/11 07:50:22;;;;;;;3.00;0.70;;;;;;;22.15;36.30;101143.00;16135369;19;130218;-44
2022/05/11 07:55:44;;;;;;;2.90;0.60;;;;;;;22.15;36.25;101145.78;16131852;19;129490;-43
2022/05/11 08:01:06;;;;;;;2.05;0.65;;;;;;;22.17;36.00;101140.75;16134530;19;129475;-43
2022/05/11 08:06:28;;;;;;;2.67;0.50;;;;;;;22.18;36.16;101131.28;16133523;19;129321;-44
2022/05/11 08:11:52;;;;;;;7.97;0.77;;;;;;;22.19;35.85;101142.19;16134422;19;129137;-45
2022/05/11 08:17:14;;;;;;;1.73;0.70;;;;;;;22.22;36.08;101138.88;16123034;19;129474;-44
2022/05/11 08:22:42;;;;;;;1.75;0.60;;;;;;;22.23;36.11;101126.63;16140349;19;129020;-44
2022/05/11 08:28:14;;;;;;;0.80;0.47;;;;;;;22.26;35.68;101128.06;16146378;19;128875;-42
2022/05/11 08:33:39;;;;;;;1.42;0.50;;;;;;;22.27;36.02;101127.78;16148650;19;129123;-42
2022/05/11 08:39:21;;;;;;;1.65;0.50;;;;;;;22.30;35.91;101129.19;16150648;19;129339;-43
2022/05/11 08:44:47;;;;;;;1.60;0.50;;;;;;;22.30;35.88;101123.63;16150767;19;129031;-44
2022/05/11 08:50:16;;;;;;;1.55;0.70;;;;;;;22.30;35.73;101123.63;16147195;19;129233;-44
2022/05/11 08:55:51;;;;;;;3.08;0.50;;;;;;;22.31;35.63;101119.72;16146045;19;129385;-46
2022/05/11 09:01:22;;;;;;;1.30;0.40;;;;;;;22.32;35.74;101123.38;16146093;19;129826;-45
2022/05/11 09:06:45;;;;;;;2.55;0.50;;;;;;;22.32;35.61;101115.00;16145990;19;129551;-45
2022/05/11 09:12:10;;;;;;;2.25;0.55;;;;;;;22.31;35.77;101114.16;16146192;19;129240;-44
2022/05/11 09:17:38;;;;;;;1.93;0.47;;;;;;;22.33;35.82;101095.22;16139456;19;129445;-46
2022/05/11 09:23:02;;;;;;;3.25;0.50;;;;;;;22.33;35.80;101103.56;16144331;19;129173;-42
2022/05/11 09:28:31;;;;;;;4.38;0.75;;;;;;;22.34;35.80;101085.75;16143269;19;128936;-46
2022/05/11 09:34:01;;;;;;;2.60;0.68;;;;;;;22.34;35.88;101091.31;16139160;19;129042;-45
2022/05/11 09:39:52;;;;;;;3.03;0.80;;;;;;;22.34;35.81;101082.97;16143491;19;129749;-43
2022/05/11 09:45:35;;;;;;;2.08;0.60;;;;;;;22.35;35.92;101087.44;16142007;19;130486;-42
2022/05/11 09:51:17;;;;;;;3.92;0.60;;;;;;;22.35;35.98;101084.66;16142516;19;130593;-42
2022/05/11 09:56:44;;;;;;;2.63;0.52;;;;;;;22.32;35.84;101079.59;16137440;19;130741;-45
2022/05/11 10:02:39;;;;;;;3.80;0.82;;;;;;;22.33;35.86;101078.50;16142945;19;129193;-45
2022/05/11 10:08:01;;;;;;;2.25;0.80;;;;;;;22.30;35.73;101079.03;16142446;19;131641;-46
2022/05/11 10:13:30;;;;;;;2.55;0.52;;;;;;;22.30;36.22;101067.06;16140432;19;129312;-45
2022/05/11 10:25:09;;;;;;;2.42;0.60;;;;;;;22.28;36.21;101057.00;16141704;19;129224;-43
2022/05/11 10:30:55;;;;;;;2.50;0.40;;;;;;;22.29;35.74;101063.41;16141473;19;129402;-42
2022/05/11 10:36:36;;;;;;;;;;;;;;;22.24;35.79;101058.63;16139545;19;129100;-43
2022/05/11 10:42:12;;;;;;;1.60;0.60;;;;;;;22.29;35.87;101055.03;16139530;19;129147;-45
2022/05/11 10:47:34;;;;;;;2.55;0.60;;;;;;;22.27;35.94;101052.53;16140102;19;129885;-43
2022/05/11 10:53:06;;;;;;;1.85;0.70;;;;;;;22.28;36.01;101048.66;16141390;19;130737;-44
2022/05/11 10:59:03;;;;;;;4.60;1.00;;;;;;;22.28;36.09;101039.44;16133706;19;129668;-43
2022/05/11 11:04:31;;;;;;;1.98;0.75;;;;;;;22.27;35.84;101035.81;16136092;19;130608;-45
2022/05/11 11:10:18;;;;;;;3.58;1.02;;;;;;;22.28;35.88;101031.06;16128590;19;130957;-45
2022/05/11 11:15:44;;;;;;;6.75;1.63;;;;;;;22.26;35.90;101022.16;16131972;19;129078;-42
2022/05/11 11:21:08;;;;;;;3.80;1.45;;;;;;;22.28;35.91;101031.06;16134380;19;129000;-42
2022/05/11 11:26:30;;;;;;;3.70;1.52;;;;;;;22.25;35.64;101017.69;16136605;19;128904;-46
2022/05/11 11:32:00;;;;;;;5.82;1.60;;;;;;;22.28;35.84;101014.34;16136907;19;128929;-45
2022/05/11 11:37:36;;;;;;;8.20;1.48;;;;;;;22.28;35.98;101019.91;16133476;19;129631;-43
2022/05/11 11:43:38;;;;;;;3.83;1.40;;;;;;;22.26;35.89;101016.59;16136119;19;129588;-45
2022/05/11 11:48:42;;;;;;;4.60;1.23;;;;;;;22.26;35.71;101005.44;16134630;19;129470;-43
2022/05/11 11:54:04;;;;;;;3.85;1.10;;;;;;;22.25;35.70;100998.19;16137277;19;129459;-42
2022/05/11 11:59:27;;;;;;;3.50;1.30;;;;;;;22.25;35.91;101003.75;16144583;19;129323;-42
2022/05/11 12:05:01;;;;;;;4.78;1.60;;;;;;;22.27;35.83;100999.59;16150891;19;129404;-44
2022/05/11 12:16:09;;;;;;;3.80;1.42;;;;;;;22.27;35.97;100984.81;16146246;19;129338;-44
2022/05/11 12:21:34;;;;;;;5.43;1.30;;;;;;;22.27;35.82;100982.88;16147968;19;129379;-42
2022/05/11 12:27:02;;;;;;;4.20;1.15;;;;;;;22.28;35.68;100975.31;16149207;19;129099;-45
2022/05/11 12:32:33;;;;;;;2.22;0.80;;;;;;;22.29;35.63;100968.66;16148754;19;129551;-44
2022/05/11 12:38:07;;;;;;;5.85;1.20;;;;;;;22.28;35.61;100966.97;16146657;19;129436;-46
2022/05/11 12:43:33;;;;;;;4.28;1.27;;;;;;;22.28;35.78;100964.19;16148062;19;129929;-46
2022/05/11 12:48:58;;;;;;;4.68;1.00;;;;;;;22.27;35.56;100963.34;16148273;19;129028;-43
2022/05/11 12:54:27;;;;;;;4.63;1.30;;;;;;;22.26;35.76;100955.28;16147567;19;129374;-44
2022/05/11 12:59:55;;;;;;;2.58;1.38;;;;;;;22.28;35.56;100953.03;16141577;19;129382;-45
2022/05/11 13:05:19;;;;;;;10.73;1.10;;;;;;;22.29;35.63;100943.56;16143658;19;129559;-45
2022/05/11 13:10:42;;;;;;;6.10;1.70;;;;;;;22.32;35.31;100947.78;16141991;19;129532;-46
2022/05/11 13:16:08;;;;;;;8.85;1.67;;;;;;;22.34;35.21;100951.16;16141002;19;129629;-44
2022/05/11 13:21:36;;;;;;;7.88;1.70;;;;;;;22.40;35.25;100950.88;16145295;19;129227;-42
2022/05/11 13:26:58;;;;;;;9.52;1.70;;;;;;;22.44;35.02;100940.84;16145616;19;131395;-45
2022/05/11 13:32:25;;;;;;;5.18;1.38;;;;;;;22.48;34.57;100932.78;16144608;19;129447;-43
2022/05/11 13:38:10;;;;;;;6.22;1.73;;;;;;;22.50;34.75;100927.78;16141727;19;129598;-44
2022/05/11 13:43:45;;;;;;;8.83;1.90;;;;;;;22.55;34.83;100924.16;16144523;19;129583;-43
2022/05/11 13:49:25;;;;;;;7.57;1.55;;;;;;;22.60;34.80;100918.63;16139382;19;129130;-47
2022/05/11 13:54:54;;;;;;;7.95;1.60;;;;;;;22.63;34.17;100920.88;16143429;19;129152;-46
2022/05/11 14:00:19;;;;;;;13.32;1.80;;;;;;;22.65;34.56;100901.88;16142191;19;130187;-45
2022/05/11 14:05:40;;;;;;;7.25;1.50;;;;;;;22.68;34.20;100918.09;16140078;19;128912;-47
2022/05/11 14:11:02;;;;;;;9.40;1.65;;;;;;;22.71;34.21;100909.16;16141863;19;132051;-42
2022/05/11 14:16:26;;;;;;;7.10;1.38;;;;;;;22.72;33.63;100907.22;16137801;19;129449;-46
2022/05/11 14:21:50;;;;;;;4.60;1.30;;;;;;;22.70;34.12;100915.03;16141317;19;129314;-45
2022/05/11 14:27:12;;;;;;;7.57;1.60;;;;;;;22.68;33.77;100906.94;16140392;19;128993;-45
2022/05/11 14:32:39;;;;;;;9.27;1.50;;;;;;;22.67;33.94;100896.06;16143761;19;129691;-46
2022/05/11 14:38:02;;;;;;;5.65;1.45;;;;;;;22.65;33.71;100879.59;16139263;19;129466;-45
2022/05/11 14:43:24;;;;;;;6.57;1.50;;;;;;;22.64;33.95;100877.94;16140508;19;128773;-45
2022/05/11 14:48:48;;;;;;;8.15;1.48;;;;;;;22.63;33.83;100864.25;16141132;19;129638;-42
2022/05/11 14:54:12;;;;;;;9.20;1.77;;;;;;;22.61;33.59;100872.91;16143142;19;129887;-43
2022/05/11 15:05:15;;;;;;;12.25;3.13;;;;;;;22.61;33.70;100856.16;16139923;19;129170;-48
2022/05/11 15:10:37;;;;;;;9.65;2.70;;;;;;;22.65;33.75;100851.69;16141947;19;129844;-42
2022/05/11 15:16:00;;;;;;;6.88;2.10;;;;;;;22.65;33.64;100862.03;16136491;19;129692;-44
2022/05/11 15:21:21;;;;;;;7.57;2.05;;;;;;;22.65;33.64;100857.28;16137262;19;131093;-44
2022/05/11 15:26:43;;;;;;;8.40;2.25;;;;;;;22.66;34.19;100844.19;16136480;19;129865;-47
2022/05/11 15:32:08;;;;;;;7.03;2.10;;;;;;;22.65;33.88;100851.69;16147427;19;131541;-44
2022/05/11 15:37:30;;;;;;;11.27;2.22;;;;;;;22.64;33.62;100843.63;16149535;19;129150;-42
2022/05/11 15:42:54;;;;;;;7.22;2.10;;;;;;;22.64;33.93;100841.69;16153180;19;129421;-45
2022/05/11 15:48:36;;;;;;;7.10;1.67;;;;;;;22.66;33.95;100831.06;16149225;19;129589;-45
2022/05/11 15:54:04;;;;;;;5.05;1.60;;;;;;;22.67;33.90;100838.31;16149090;19;129042;-42
2022/05/11 15:59:25;;;;;;;9.95;2.10;;;;;;;22.66;34.30;100842.22;16146470;19;132319;-46
2022/05/11 16:04:47;;;;;;;8.10;1.60;;;;;;;22.69;34.07;100846.44;16146753;19;130520;-44
2022/05/11 16:10:10;;;;;;;5.30;1.63;;;;;;;22.68;33.82;100836.38;16146999;19;129240;-44
2022/05/11 16:15:32;;;;;;;12.38;1.70;;;;;;;22.64;33.85;100827.75;16145657;19;130833;-43
2022/05/11 16:20:56;;;;;;;14.27;2.35;;;;;;;22.64;34.19;100829.69;16147421;19;129895;-45
2022/05/11 16:26:25;;;;;;;4.05;1.35;;;;;;;22.63;34.06;100841.94;16142101;19;131361;-42
2022/05/11 16:31:47;;;;;;;5.88;1.85;;;;;;;22.59;34.65;100842.50;16144473;19;129435;-43
2022/05/11 16:37:11;;;;;;;6.13;1.75;;;;;;;22.61;34.82;100841.38;16137517;19;130562;-47
2022/05/11 16:42:34;;;;;;;4.90;1.65;;;;;;;22.58;34.45;100837.19;16144634;19;129965;-42
2022/05/11 16:47:56;;;;;;;5.38;1.40;;;;;;;22.58;34.53;100837.19;16144070;19;129873;-44
2022/05/11 16:53:18;;;;;;;3.88;1.52;;;;;;;22.57;34.50;100838.31;16138958;19;129933;-46
2022/05/11 16:58:39;;;;;;;5.25;1.40;;;;;;;22.54;34.67;100828.56;16140550;19;130227;-42
2022/05/11 17:04:01;;;;;;;4.55;1.40;;;;;;;22.53;34.61;100843.59;16140488;19;129205;-42
2022/05/11 17:09:23;;;;;;;7.15;1.67;;;;;;;22.55;34.40;100840.53;16142449;19;129866;-45
2022/05/11 17:14:45;;;;;;;4.95;1.35;;;;;;;22.57;33.94;100855.03;16139606;19;131346;-44
2022/05/11 17:20:09;;;;;;;3.90;1.35;;;;;;;22.55;34.34;100849.75;16135343;19;131111;-47
2022/05/11 17:25:32;;;;;;;6.82;1.38;;;;;;;22.55;34.23;100851.69;16136430;19;130529;-43
2022/05/11 17:30:53;;;;;;;2.92;0.98;;;;;;;22.56;33.97;100858.94;16140689;19;129513;-42
2022/05/11 17:36:16;;;;;;;4.15;1.30;;;;;;;22.52;33.88;100874.56;16141264;19;131543;-42
2022/05/11 17:41:38;;;;;;;4.15;1.20;;;;;;;22.48;34.15;100871.44;16137094;19;130647;-47
2022/05/11 17:47:00;;;;;;;6.63;1.25;;;;;;;22.45;34.47;100874.81;16140984;19;129348;-42
2022/05/11 17:52:22;;;;;;;5.90;1.27;;;;;;;22.43;34.56;100872.28;16138609;19;129545;-49
2022/05/11 17:57:44;;;;;;;6.15;0.85;;;;;;;22.42;34.16;100867.81;16138077;19;129316;-43
2022/05/11 18:03:06;;;;;;;4.95;1.00;;;;;;;22.41;34.47;100873.69;16139690;19;129070;-46
2022/05/11 18:08:28;;;;;;;6.43;1.00;;;;;;;22.40;34.30;100883.16;16130033;19;129808;-43
2022/05/11 18:13:50;;;;;;;1.98;0.80;;;;;;;22.40;34.50;100878.41;16122383;19;130879;-48
2022/05/11 18:19:22;;;;;;;2.25;0.63;;;;;;;22.39;34.19;100887.91;16200357;19;129300;-41
2022/05/11 18:24:44;;;;;;;5.20;1.00;;;;;;;22.38;34.06;100894.56;16210348;19;129059;-46
2022/05/11 18:30:08;;;;;;;3.45;0.70;;;;;;;22.36;34.28;100899.59;16212835;19;129181;-42
2022/05/11 18:35:31;;;;;;;1.97;0.70;;;;;;;22.33;34.47;100911.28;16213338;19;129852;-44
2022/05/11 18:40:54;;;;;;;4.75;0.60;;;;;;;22.32;34.18;100922.69;16213071;19;129335;-44
2022/05/11 18:46:15;;;;;;;8.57;1.10;;;;;;;22.32;34.23;100922.69;16208096;19;130042;-42
2022/05/11 18:51:37;;;;;;;7.68;0.70;;;;;;;22.34;34.30;100926.06;16209400;19;130557;-43
2022/05/11 18:56:59;;;;;;;5.32;0.90;;;;;;;22.36;34.33;100909.88;16207077;19;129322;-44
2022/05/11 19:02:21;;;;;;;5.00;0.82;;;;;;;22.38;34.28;100914.09;16211232;19;130640;-46
2022/05/11 19:07:43;;;;;;;6.22;1.08;;;;;;;22.40;34.44;100916.59;16211779;19;129390;-43
2022/05/11 19:13:04;;;;;;;4.90;0.98;;;;;;;22.40;34.46;100928.56;16210514;19;130465;-43
2022/05/11 19:18:26;;;;;;;17.23;1.98;;;;;;;22.42;34.65;100929.13;16193252;19;130852;-43
2022/05/11 19:23:51;;;;;;;32.67;2.10;;;;;;;22.45;35.10;100936.13;16192415;19;129986;-42
2022/05/11 19:29:14;;;;;;;24.97;3.00;;;;;;;22.45;34.79;100936.13;16146891;19;129482;-45
2022/05/11 19:34:36;;;;;;;15.40;1.25;;;;;;;22.47;35.21;100933.06;16134119;19;131021;-41
2022/05/11 19:39:59;;;;;;;9.88;1.20;;;;;;;22.49;35.31;100951.19;16123593;19;129904;-41
2022/05/11 19:45:21;;;;;;;15.23;1.60;;;;;;;22.50;35.53;100952.03;16133986;19;129611;-43
2022/05/11 19:50:43;;;;;;;26.95;2.60;;;;;;;22.51;35.60;100973.25;16140650;19;129536;-44
2022/05/11 19:56:05;;;;;;;21.35;1.73;;;;;;;22.52;35.85;100991.66;16142333;19;129416;-40
2022/05/11 20:01:27;;;;;;;13.68;1.95;;;;;;;22.52;35.97;101000.00;16145789;19;129381;-43
2022/05/11 20:06:56;;;;;;;17.05;1.48;;;;;;;22.53;36.00;101007.22;16144993;19;129485;-40
2022/05/11 20:12:17;;;;;;;15.27;1.55;;;;;;;22.52;36.34;101008.38;16144070;19;130414;-43
2022/05/11 20:17:40;;;;;;;14.25;1.80;;;;;;;22.51;36.26;100998.34;16137251;19;129491;-44
2022/05/11 20:23:02;;;;;;;6.80;1.13;;;;;;;22.51;36.24;101001.13;16143291;19;130548;-44
2022/05/11 20:28:24;;;;;;;8.52;1.35;;;;;;;22.48;36.22;101012.81;16135429;19;129382;-41
2022/05/11 20:39:27;;;;;;;11.40;1.48;;;;;;;22.43;36.65;101025.59;16127212;19;131992;-44
2022/05/11 20:44:48;;;;;;;4.53;0.80;;;;;;;22.43;36.53;101033.97;16136886;19;129523;-40
2022/05/11 20:50:12;;;;;;;7.30;1.10;;;;;;;22.43;36.39;101036.75;16132358;19;131332;-44
2022/05/11 20:55:36;;;;;;;11.38;1.20;;;;;;;22.46;36.43;101038.19;16134288;19;130743;-44
2022/05/11 21:00:57;;;;;;;9.63;0.88;;;;;;;22.42;36.37;101046.22;16130930;19;130404;-40
2022/05/11 21:06:19;;;;;;;3.90;0.80;;;;;;;22.39;36.01;101052.34;16133106;19;130677;-40
2022/05/11 21:11:43;;;;;;;5.45;0.80;;;;;;;22.36;36.28;101082.69;16133410;19;129898;-40
2022/05/11 21:17:05;;;;;;;5.55;0.90;;;;;;;22.32;36.17;101095.50;16127292;19;130427;-48
2022/05/11 21:22:27;;;;;;;7.68;0.93;;;;;;;22.30;36.48;101073.44;16132057;19;129750;-43
2022/05/11 21:27:49;;;;;;;3.35;0.88;;;;;;;22.26;36.19;101078.72;16132305;19;130053;-40
2022/05/11 21:33:10;;;;;;;4.85;0.80;;;;;;;22.23;36.29;101084.00;16132448;19;130393;-39
2022/05/11 21:38:32;;;;;;;6.32;1.17;;;;;;;22.20;36.29;101084.50;16130440;19;131054;-40
2022/05/11 21:43:54;;;;;;;4.30;0.82;;;;;;;22.19;36.21;101105.09;16126859;19;131696;-40
2022/05/11 21:49:16;;;;;;;4.95;0.63;;;;;;;22.17;36.25;101112.88;16131074;19;129443;-42
2022/05/11 21:54:37;;;;;;;4.93;0.60;;;;;;;22.14;36.32;101114.25;16128085;19;129687;-39
2022/05/11 21:59:59;;;;;;;7.57;0.60;;;;;;;22.11;36.25;101110.06;16124924;19;130583;-39
2022/05/11 22:05:22;;;;;;;2.13;0.70;;;;;;;22.10;36.47;101127.03;16131619;19;130295;-44
2022/05/11 22:10:44;;;;;;;6.28;0.93;;;;;;;22.07;36.29;101153.50;16131765;19;129235;-40
2022/05/11 22:16:06;;;;;;;2.95;0.68;;;;;;;22.05;36.46;101166.84;16129729;19;129960;-40
2022/05/11 22:21:28;;;;;;;4.72;0.80;;;;;;;22.02;36.10;101194.41;16113255;19;130069;-41
2022/05/11 22:26:50;;;;;;;2.85;0.47;;;;;;;22.00;36.71;101203.03;16120451;19;129906;-39
2022/05/11 22:32:12;;;;;;;4.28;0.90;;;;;;;22.01;36.77;101217.78;16123720;19;130739;-41
2022/05/11 22:37:34;;;;;;;4.57;0.65;;;;;;;22.01;36.67;101231.72;16123416;19;130594;-48
2022/05/11 22:42:56;;;;;;;4.35;0.70;;;;;;;22.02;36.36;101242.59;16123863;19;130119;-47
2022/05/11 22:48:18;;;;;;;2.58;0.68;;;;;;;22.06;36.68;101254.06;16125613;19;130178;-43
2022/05/11 22:53:40;;;;;;;4.00;0.70;;;;;;;22.04;36.33;101265.44;16128253;19;129536;-43
2022/05/11 22:59:02;;;;;;;2.90;0.80;;;;;;;22.03;36.24;101274.91;16121186;19;130396;-45
2022/05/11 23:04:24;;;;;;;3.17;0.80;;;;;;;22.01;36.29;101285.50;16136261;19;129694;-43
2022/05/11 23:09:45;;;;;;;4.07;0.75;;;;;;;22.00;36.49;101296.88;16141683;19;129737;-39
2022/05/11 23:15:08;;;;;;;3.42;0.70;;;;;;;21.97;36.18;101301.88;16138731;19;129984;-43
2022/05/11 23:20:31;;;;;;;2.20;0.47;;;;;;;21.95;36.23;101301.31;16136316;19;129537;-42
2022/05/11 23:25:52;;;;;;;3.75;0.80;;;;;;;21.94;36.27;101321.91;16139961;19;129982;-44
2022/05/11 23:31:14;;;;;;;1.63;0.80;;;;;;;21.92;36.61;101324.13;16141394;19;129395;-46
2022/05/11 23:36:37;;;;;;;2.30;0.70;;;;;;;21.92;36.56;101334.41;16137108;19;130288;-41
2022/05/11 23:41:59;;;;;;;3.25;1.02;;;;;;;21.88;36.52;101333.25;16139558;19;130183;-41
2022/05/11 23:47:21;;;;;;;6.00;1.10;;;;;;;21.87;36.36;101337.13;16139733;19;129796;-39
2022/05/11 23:52:43;;;;;;;1.75;0.75;;;;;;;21.86;36.72;101352.16;16139982;19;129755;-40
2022/05/11 23:58:06;;;;;;;2.97;0.88;;;;;;;21.84;36.65;101355.22;16136508;19;130348;-40
